sensor_id;sensor_type;location;lat;lon;timestamp;P1;durP1;ratioP1;P2;durP2;ratioP2
74644;SDS011;63163;55.630;37.594;2023-12-22T00:00:42;6.800000;;;5.300000;;
74644;SDS011;63163;55.630;37.594;2023-12-22T00:01:42;7.200000;;;5.500000;;
74644;SDS011;63163;55.630;37.594;2023-12-22T00:02:43;6.200000;;;4.800000;;
74644;SDS011;63163;55.630;37.594;2023-12-22T00:03:43;6.100000;;;4.800000;;
74644;SDS011;63163;55.630;37.594;2023-12-22T00:04:46;8.000000;;;5.200000;;
74644;SDS011;63163;55.630;37.594;2023-12-22T00:05:46;5.900000;;;4.600000;;
74644;SDS011;63163;55.630;37.594;2023-12-22T00:06:47;6.700000;;;5.100000;;
74644;SDS011;63163;55.630;37.594;2023-12-22T00:07:49;7.000000;;;5.400000;;
74644;SDS011;63163;55.630;37.594;2023-12-22T00:08:49;7.300000;;;4.600000;;
74644;SDS011;63163;55.630;37.594;2023-12-22T00:09:50;7.200000;;;5.400000;;
74644;SDS011;63163;55.630;37.594;2023-12-22T00:10:51;7.100000;;;5.000000;;
74644;SDS011;63163;55.630;37.594;2023-12-22T00:11:51;7.200000;;;5.500000;;
74644;SDS011;63163;55.630;37.594;2023-12-22T00:12:52;5.900000;;;4.700000;;
74644;SDS011;63163;55.630;37.594;2023-12-22T00:13:57;7.300000;;;5.000000;;
74644;SDS011;63163;55.630;37.594;2023-12-22T00:14:58;6.500000;;;5.500000;;
74644;SDS011;63163;55.630;37.594;2023-12-22T00:15:58;6.300000;;;4.800000;;
74644;SDS011;63163;55.630;37.594;2023-12-22T00:16:59;7.700000;;;5.500000;;
74644;SDS011;63163;55.630;37.594;2023-12-22T00:18:00;6.700000;;;5.200000;;
74644;SDS011;63163;55.630;37.594;2023-12-22T00:19:00;6.700000;;;5.000000;;
74644;SDS011;63163;55.630;37.594;2023-12-22T00:20:01;6.400000;;;5.300000;;
74644;SDS011;63163;55.630;37.594;2023-12-22T00:21:03;8.600000;;;5.300000;;
74644;SDS011;63163;55.630;37.594;2023-12-22T00:22:04;6.900000;;;5.500000;;
74644;SDS011;63163;55.630;37.594;2023-12-22T00:23:04;8.300000;;;5.200000;;
74644;SDS011;63163;55.630;37.594;2023-12-22T00:24:05;7.600000;;;5.700000;;
74644;SDS011;63163;55.630;37.594;2023-12-22T00:25:06;9.000000;;;5.600000;;
74644;SDS011;63163;55.630;37.594;2023-12-22T00:26:08;8.000000;;;5.500000;;
74644;SDS011;63163;55.630;37.594;2023-12-22T00:27:08;7.700000;;;5.400000;;
74644;SDS011;63163;55.630;37.594;2023-12-22T00:28:09;6.800000;;;4.900000;;
74644;SDS011;63163;55.630;37.594;2023-12-22T00:29:10;6.700000;;;5.000000;;
74644;SDS011;63163;55.630;37.594;2023-12-22T00:30:11;8.600000;;;5.600000;;
74644;SDS011;63163;55.630;37.594;2023-12-22T00:31:11;7.700000;;;5.700000;;
74644;SDS011;63163;55.630;37.594;2023-12-22T00:32:13;9.000000;;;6.400000;;
74644;SDS011;63163;55.630;37.594;2023-12-22T00:33:13;9.500000;;;6.600000;;
74644;SDS011;63163;55.630;37.594;2023-12-22T00:34:14;9.800000;;;5.800000;;
74644;SDS011;63163;55.630;37.594;2023-12-22T00:35:14;10.400000;;;6.800000;;
74644;SDS011;63163;55.630;37.594;2023-12-22T00:36:15;10.700000;;;6.900000;;
74644;SDS011;63163;55.630;37.594;2023-12-22T00:37:16;11.700000;;;6.600000;;
74644;SDS011;63163;55.630;37.594;2023-12-22T00:38:17;11.600000;;;6.300000;;
74644;SDS011;63163;55.630;37.594;2023-12-22T00:39:17;10.600000;;;6.400000;;
74644;SDS011;63163;55.630;37.594;2023-12-22T00:40:18;8.900000;;;6.300000;;
74644;SDS011;63163;55.630;37.594;2023-12-22T00:41:18;9.100000;;;6.000000;;
74644;SDS011;63163;55.630;37.594;2023-12-22T00:42:19;8.600000;;;5.700000;;
74644;SDS011;63163;55.630;37.594;2023-12-22T00:43:20;12.500000;;;6.900000;;
74644;SDS011;63163;55.630;37.594;2023-12-22T00:44:20;10.700000;;;6.400000;;
74644;SDS011;63163;55.630;37.594;2023-12-22T00:45:21;12.400000;;;6.500000;;
74644;SDS011;63163;55.630;37.594;2023-12-22T00:46:21;10.200000;;;6.200000;;
74644;SDS011;63163;55.630;37.594;2023-12-22T00:47:22;11.700000;;;6.500000;;
74644;SDS011;63163;55.630;37.594;2023-12-22T00:48:22;12.300000;;;6.700000;;
74644;SDS011;63163;55.630;37.594;2023-12-22T00:51:32;12.300000;;;7.400000;;
74644;SDS011;63163;55.630;37.594;2023-12-22T00:52:33;12.200000;;;7.100000;;
74644;SDS011;63163;55.630;37.594;2023-12-22T00:53:34;14.000000;;;7.500000;;
74644;SDS011;63163;55.630;37.594;2023-12-22T00:54:34;11.900000;;;7.600000;;
74644;SDS011;63163;55.630;37.594;2023-12-22T00:55:35;13.400000;;;7.600000;;
74644;SDS011;63163;55.630;37.594;2023-12-22T00:56:36;12.800000;;;6.900000;;
74644;SDS011;63163;55.630;37.594;2023-12-22T00:57:36;11.500000;;;6.600000;;
74644;SDS011;63163;55.630;37.594;2023-12-22T00:58:37;10.600000;;;6.700000;;
74644;SDS011;63163;55.630;37.594;2023-12-22T00:59:37;11.500000;;;7.100000;;
74644;SDS011;63163;55.630;37.594;2023-12-22T01:00:38;13.700000;;;7.000000;;
74644;SDS011;63163;55.630;37.594;2023-12-22T01:01:39;13.200000;;;7.300000;;
74644;SDS011;63163;55.630;37.594;2023-12-22T01:02:39;15.300000;;;7.500000;;
74644;SDS011;63163;55.630;37.594;2023-12-22T01:03:40;15.400000;;;8.900000;;
74644;SDS011;63163;55.630;37.594;2023-12-22T01:04:40;13.900000;;;8.600000;;
74644;SDS011;63163;55.630;37.594;2023-12-22T01:05:41;12.800000;;;7.100000;;
74644;SDS011;63163;55.630;37.594;2023-12-22T01:06:42;15.300000;;;7.600000;;
74644;SDS011;63163;55.630;37.594;2023-12-22T01:07:42;15.000000;;;7.600000;;
74644;SDS011;63163;55.630;37.594;2023-12-22T01:08:43;15.000000;;;7.800000;;
74644;SDS011;63163;55.630;37.594;2023-12-22T01:09:43;14.200000;;;6.700000;;
74644;SDS011;63163;55.630;37.594;2023-12-22T01:10:44;13.400000;;;7.500000;;
74644;SDS011;63163;55.630;37.594;2023-12-22T01:11:45;14.600000;;;7.400000;;
74644;SDS011;63163;55.630;37.594;2023-12-22T01:12:45;11.300000;;;6.600000;;
74644;SDS011;63163;55.630;37.594;2023-12-22T01:13:46;12.700000;;;6.700000;;
74644;SDS011;63163;55.630;37.594;2023-12-22T01:14:47;16.700001;;;8.500000;;
74644;SDS011;63163;55.630;37.594;2023-12-22T01:15:49;14.500000;;;7.900000;;
74644;SDS011;63163;55.630;37.594;2023-12-22T01:16:50;12.900000;;;8.000000;;
74644;SDS011;63163;55.630;37.594;2023-12-22T01:17:50;14.000000;;;7.600000;;
74644;SDS011;63163;55.630;37.594;2023-12-22T01:18:51;15.000000;;;8.000000;;
74644;SDS011;63163;55.630;37.594;2023-12-22T01:19:52;13.700000;;;7.900000;;
74644;SDS011;63163;55.630;37.594;2023-12-22T01:20:52;16.900000;;;7.800000;;
74644;SDS011;63163;55.630;37.594;2023-12-22T01:21:53;11.900000;;;7.500000;;
74644;SDS011;63163;55.630;37.594;2023-12-22T01:22:53;15.900000;;;8.100000;;
74644;SDS011;63163;55.630;37.594;2023-12-22T01:23:54;14.900000;;;7.300000;;
74644;SDS011;63163;55.630;37.594;2023-12-22T01:24:54;15.400000;;;7.600000;;
74644;SDS011;63163;55.630;37.594;2023-12-22T01:25:55;12.300000;;;7.200000;;
74644;SDS011;63163;55.630;37.594;2023-12-22T01:26:56;14.400000;;;8.000000;;
74644;SDS011;63163;55.630;37.594;2023-12-22T01:27:56;14.400000;;;7.000000;;
74644;SDS011;63163;55.630;37.594;2023-12-22T01:28:57;13.600000;;;7.300000;;
74644;SDS011;63163;55.630;37.594;2023-12-22T01:29:57;15.100000;;;7.000000;;
74644;SDS011;63163;55.630;37.594;2023-12-22T01:30:58;11.200000;;;6.500000;;
74644;SDS011;63163;55.630;37.594;2023-12-22T01:31:58;11.500000;;;6.900000;;
74644;SDS011;63163;55.630;37.594;2023-12-22T01:32:59;10.100000;;;6.500000;;
74644;SDS011;63163;55.630;37.594;2023-12-22T01:34:00;12.800000;;;7.600000;;
74644;SDS011;63163;55.630;37.594;2023-12-22T01:35:00;10.200000;;;6.300000;;
74644;SDS011;63163;55.630;37.594;2023-12-22T01:36:04;10.200000;;;6.600000;;
74644;SDS011;63163;55.630;37.594;2023-12-22T01:37:05;11.400000;;;6.000000;;
74644;SDS011;63163;55.630;37.594;2023-12-22T01:38:05;11.100000;;;6.300000;;
74644;SDS011;63163;55.630;37.594;2023-12-22T01:39:06;9.800000;;;6.800000;;
74644;SDS011;63163;55.630;37.594;2023-12-22T01:40:07;10.600000;;;6.300000;;
74644;SDS011;63163;55.630;37.594;2023-12-22T01:41:08;11.100000;;;6.500000;;
74644;SDS011;63163;55.630;37.594;2023-12-22T01:42:09;10.800000;;;6.700000;;
74644;SDS011;63163;55.630;37.594;2023-12-22T01:43:14;9.300000;;;6.100000;;
74644;SDS011;63163;55.630;37.594;2023-12-22T01:44:17;9.600000;;;6.600000;;
74644;SDS011;63163;55.630;37.594;2023-12-22T01:45:18;8.800000;;;6.500000;;
74644;SDS011;63163;55.630;37.594;2023-12-22T01:46:18;9.200000;;;5.600000;;
74644;SDS011;63163;55.630;37.594;2023-12-22T01:47:19;8.200000;;;5.700000;;
74644;SDS011;63163;55.630;37.594;2023-12-22T01:48:19;12.200000;;;7.100000;;
74644;SDS011;63163;55.630;37.594;2023-12-22T01:49:21;8.500000;;;5.700000;;
74644;SDS011;63163;55.630;37.594;2023-12-22T01:50:22;9.100000;;;6.800000;;
74644;SDS011;63163;55.630;37.594;2023-12-22T01:51:23;9.000000;;;7.600000;;
74644;SDS011;63163;55.630;37.594;2023-12-22T01:52:24;8.200000;;;6.100000;;
74644;SDS011;63163;55.630;37.594;2023-12-22T01:53:25;8.800000;;;6.200000;;
74644;SDS011;63163;55.630;37.594;2023-12-22T01:54:25;9.200000;;;5.500000;;
74644;SDS011;63163;55.630;37.594;2023-12-22T01:55:26;8.100000;;;6.400000;;
74644;SDS011;63163;55.630;37.594;2023-12-22T01:56:27;6.700000;;;5.400000;;
74644;SDS011;63163;55.630;37.594;2023-12-22T01:57:28;8.400000;;;6.500000;;
74644;SDS011;63163;55.630;37.594;2023-12-22T01:58:29;7.900000;;;5.400000;;
74644;SDS011;63163;55.630;37.594;2023-12-22T01:59:30;7.200000;;;5.000000;;
74644;SDS011;63163;55.630;37.594;2023-12-22T02:00:34;7.800000;;;5.700000;;
74644;SDS011;63163;55.630;37.594;2023-12-22T02:01:35;8.600000;;;6.600000;;
74644;SDS011;63163;55.630;37.594;2023-12-22T02:02:36;5.500000;;;4.500000;;
74644;SDS011;63163;55.630;37.594;2023-12-22T02:03:38;7.300000;;;5.400000;;
74644;SDS011;63163;55.630;37.594;2023-12-22T02:04:39;5.800000;;;4.100000;;
74644;SDS011;63163;55.630;37.594;2023-12-22T02:05:40;8.500000;;;5.500000;;
74644;SDS011;63163;55.630;37.594;2023-12-22T02:06:41;7.600000;;;5.600000;;
74644;SDS011;63163;55.630;37.594;2023-12-22T02:07:42;7.800000;;;5.100000;;
74644;SDS011;63163;55.630;37.594;2023-12-22T02:08:43;6.800000;;;5.600000;;
74644;SDS011;63163;55.630;37.594;2023-12-22T02:09:46;8.300000;;;6.900000;;
74644;SDS011;63163;55.630;37.594;2023-12-22T02:10:47;7.900000;;;6.300000;;
74644;SDS011;63163;55.630;37.594;2023-12-22T02:11:47;8.000000;;;5.900000;;
74644;SDS011;63163;55.630;37.594;2023-12-22T02:12:48;8.000000;;;5.400000;;
74644;SDS011;63163;55.630;37.594;2023-12-22T02:13:49;6.200000;;;4.300000;;
74644;SDS011;63163;55.630;37.594;2023-12-22T02:14:49;7.200000;;;5.700000;;
74644;SDS011;63163;55.630;37.594;2023-12-22T02:15:51;6.000000;;;5.100000;;
74644;SDS011;63163;55.630;37.594;2023-12-22T02:16:58;6.300000;;;5.000000;;
74644;SDS011;63163;55.630;37.594;2023-12-22T02:18:02;7.100000;;;5.600000;;
74644;SDS011;63163;55.630;37.594;2023-12-22T02:19:05;7.100000;;;5.600000;;
74644;SDS011;63163;55.630;37.594;2023-12-22T02:20:09;8.800000;;;6.400000;;
74644;SDS011;63163;55.630;37.594;2023-12-22T02:21:10;7.700000;;;4.900000;;
74644;SDS011;63163;55.630;37.594;2023-12-22T02:22:11;7.500000;;;5.800000;;
74644;SDS011;63163;55.630;37.594;2023-12-22T02:23:11;7.500000;;;6.000000;;
74644;SDS011;63163;55.630;37.594;2023-12-22T02:24:12;6.900000;;;5.200000;;
74644;SDS011;63163;55.630;37.594;2023-12-22T02:25:13;7.300000;;;5.200000;;
74644;SDS011;63163;55.630;37.594;2023-12-22T02:26:15;6.800000;;;5.500000;;
74644;SDS011;63163;55.630;37.594;2023-12-22T02:27:21;7.900000;;;5.600000;;
74644;SDS011;63163;55.630;37.594;2023-12-22T02:28:23;7.800000;;;5.800000;;
74644;SDS011;63163;55.630;37.594;2023-12-22T02:29:24;6.700000;;;5.500000;;
74644;SDS011;63163;55.630;37.594;2023-12-22T02:30:26;7.400000;;;5.600000;;
74644;SDS011;63163;55.630;37.594;2023-12-22T02:31:28;8.400000;;;6.500000;;
74644;SDS011;63163;55.630;37.594;2023-12-22T02:32:31;7.600000;;;6.400000;;
74644;SDS011;63163;55.630;37.594;2023-12-22T02:33:33;6.900000;;;5.300000;;
74644;SDS011;63163;55.630;37.594;2023-12-22T02:34:35;7.800000;;;5.400000;;
74644;SDS011;63163;55.630;37.594;2023-12-22T02:35:36;8.000000;;;5.800000;;
74644;SDS011;63163;55.630;37.594;2023-12-22T02:36:37;7.700000;;;5.800000;;
74644;SDS011;63163;55.630;37.594;2023-12-22T02:37:39;7.500000;;;5.400000;;
74644;SDS011;63163;55.630;37.594;2023-12-22T02:38:40;8.900000;;;4.700000;;
74644;SDS011;63163;55.630;37.594;2023-12-22T02:39:41;7.300000;;;6.200000;;
74644;SDS011;63163;55.630;37.594;2023-12-22T02:40:43;8.600000;;;5.600000;;
74644;SDS011;63163;55.630;37.594;2023-12-22T02:41:44;8.200000;;;5.800000;;
74644;SDS011;63163;55.630;37.594;2023-12-22T02:42:46;7.800000;;;5.800000;;
74644;SDS011;63163;55.630;37.594;2023-12-22T02:43:46;6.900000;;;5.700000;;
74644;SDS011;63163;55.630;37.594;2023-12-22T02:44:47;6.100000;;;5.000000;;
74644;SDS011;63163;55.630;37.594;2023-12-22T02:45:49;7.200000;;;3.800000;;
74644;SDS011;63163;55.630;37.594;2023-12-22T02:46:50;8.300000;;;5.500000;;
74644;SDS011;63163;55.630;37.594;2023-12-22T02:47:50;6.600000;;;5.700000;;
74644;SDS011;63163;55.630;37.594;2023-12-22T02:48:51;7.500000;;;5.700000;;
74644;SDS011;63163;55.630;37.594;2023-12-22T02:49:52;8.400000;;;6.000000;;
74644;SDS011;63163;55.630;37.594;2023-12-22T02:50:52;7.100000;;;5.200000;;
74644;SDS011;63163;55.630;37.594;2023-12-22T02:51:53;7.800000;;;5.600000;;
74644;SDS011;63163;55.630;37.594;2023-12-22T02:52:54;5.900000;;;3.800000;;
74644;SDS011;63163;55.630;37.594;2023-12-22T02:53:54;7.900000;;;6.100000;;
74644;SDS011;63163;55.630;37.594;2023-12-22T02:54:55;7.600000;;;5.900000;;
74644;SDS011;63163;55.630;37.594;2023-12-22T02:55:55;7.100000;;;5.700000;;
74644;SDS011;63163;55.630;37.594;2023-12-22T02:56:56;7.100000;;;6.400000;;
74644;SDS011;63163;55.630;37.594;2023-12-22T02:57:57;6.600000;;;5.500000;;
74644;SDS011;63163;55.630;37.594;2023-12-22T02:58:57;6.500000;;;5.800000;;
74644;SDS011;63163;55.630;37.594;2023-12-22T02:59:58;8.500000;;;6.400000;;
74644;SDS011;63163;55.630;37.594;2023-12-22T03:00:59;7.400000;;;5.900000;;
74644;SDS011;63163;55.630;37.594;2023-12-22T03:01:59;6.500000;;;5.500000;;
74644;SDS011;63163;55.630;37.594;2023-12-22T03:03:00;7.800000;;;5.900000;;
74644;SDS011;63163;55.630;37.594;2023-12-22T03:04:00;7.600000;;;6.300000;;
74644;SDS011;63163;55.630;37.594;2023-12-22T03:05:01;7.900000;;;6.400000;;
74644;SDS011;63163;55.630;37.594;2023-12-22T03:06:02;7.400000;;;5.900000;;
74644;SDS011;63163;55.630;37.594;2023-12-22T03:07:02;7.900000;;;5.800000;;
74644;SDS011;63163;55.630;37.594;2023-12-22T03:08:03;6.900000;;;5.600000;;
74644;SDS011;63163;55.630;37.594;2023-12-22T03:09:04;6.500000;;;5.500000;;
74644;SDS011;63163;55.630;37.594;2023-12-22T03:10:05;7.500000;;;5.800000;;
74644;SDS011;63163;55.630;37.594;2023-12-22T03:11:06;7.000000;;;6.100000;;
74644;SDS011;63163;55.630;37.594;2023-12-22T03:12:07;7.100000;;;5.200000;;
74644;SDS011;63163;55.630;37.594;2023-12-22T03:13:07;7.600000;;;6.100000;;
74644;SDS011;63163;55.630;37.594;2023-12-22T03:14:08;7.700000;;;6.100000;;
74644;SDS011;63163;55.630;37.594;2023-12-22T03:15:09;7.900000;;;6.000000;;
74644;SDS011;63163;55.630;37.594;2023-12-22T03:16:10;8.100000;;;5.600000;;
74644;SDS011;63163;55.630;37.594;2023-12-22T03:17:10;7.800000;;;6.500000;;
74644;SDS011;63163;55.630;37.594;2023-12-22T03:18:11;7.700000;;;6.200000;;
74644;SDS011;63163;55.630;37.594;2023-12-22T03:19:11;7.800000;;;6.700000;;
74644;SDS011;63163;55.630;37.594;2023-12-22T03:20:12;7.600000;;;6.500000;;
74644;SDS011;63163;55.630;37.594;2023-12-22T03:21:16;7.100000;;;5.700000;;
74644;SDS011;63163;55.630;37.594;2023-12-22T03:22:16;8.000000;;;6.200000;;
74644;SDS011;63163;55.630;37.594;2023-12-22T03:23:17;8.200000;;;6.600000;;
74644;SDS011;63163;55.630;37.594;2023-12-22T03:24:17;7.500000;;;5.400000;;
74644;SDS011;63163;55.630;37.594;2023-12-22T03:25:19;7.600000;;;6.600000;;
74644;SDS011;63163;55.630;37.594;2023-12-22T03:26:20;7.900000;;;6.200000;;
74644;SDS011;63163;55.630;37.594;2023-12-22T03:27:20;8.100000;;;6.200000;;
74644;SDS011;63163;55.630;37.594;2023-12-22T03:28:21;7.900000;;;5.400000;;
74644;SDS011;63163;55.630;37.594;2023-12-22T03:29:21;8.900000;;;6.400000;;
74644;SDS011;63163;55.630;37.594;2023-12-22T03:30:22;8.000000;;;6.700000;;
74644;SDS011;63163;55.630;37.594;2023-12-22T03:31:23;7.900000;;;6.400000;;
74644;SDS011;63163;55.630;37.594;2023-12-22T03:32:23;7.000000;;;6.100000;;
74644;SDS011;63163;55.630;37.594;2023-12-22T03:33:24;9.300000;;;6.600000;;
74644;SDS011;63163;55.630;37.594;2023-12-22T03:34:24;6.700000;;;5.700000;;
74644;SDS011;63163;55.630;37.594;2023-12-22T03:35:25;8.700000;;;7.400000;;
74644;SDS011;63163;55.630;37.594;2023-12-22T03:36:26;7.800000;;;5.900000;;
74644;SDS011;63163;55.630;37.594;2023-12-22T03:37:26;7.300000;;;6.000000;;
74644;SDS011;63163;55.630;37.594;2023-12-22T03:38:27;7.500000;;;6.500000;;
74644;SDS011;63163;55.630;37.594;2023-12-22T03:39:27;7.500000;;;6.600000;;
74644;SDS011;63163;55.630;37.594;2023-12-22T03:40:28;8.200000;;;6.500000;;
74644;SDS011;63163;55.630;37.594;2023-12-22T03:41:29;7.400000;;;5.800000;;
74644;SDS011;63163;55.630;37.594;2023-12-22T03:42:29;7.500000;;;6.400000;;
74644;SDS011;63163;55.630;37.594;2023-12-22T03:43:30;7.500000;;;6.000000;;
74644;SDS011;63163;55.630;37.594;2023-12-22T03:44:31;8.900000;;;6.700000;;
74644;SDS011;63163;55.630;37.594;2023-12-22T03:45:32;7.700000;;;6.600000;;
74644;SDS011;63163;55.630;37.594;2023-12-22T03:46:32;8.800000;;;6.800000;;
74644;SDS011;63163;55.630;37.594;2023-12-22T03:47:33;8.000000;;;6.600000;;
74644;SDS011;63163;55.630;37.594;2023-12-22T03:48:33;8.500000;;;6.700000;;
74644;SDS011;63163;55.630;37.594;2023-12-22T03:49:34;8.300000;;;5.800000;;
74644;SDS011;63163;55.630;37.594;2023-12-22T03:50:34;10.000000;;;6.200000;;
74644;SDS011;63163;55.630;37.594;2023-12-22T03:51:35;7.700000;;;5.800000;;
74644;SDS011;63163;55.630;37.594;2023-12-22T03:52:38;8.500000;;;7.000000;;
74644;SDS011;63163;55.630;37.594;2023-12-22T03:53:38;7.500000;;;6.300000;;
74644;SDS011;63163;55.630;37.594;2023-12-22T03:54:39;6.900000;;;5.900000;;
74644;SDS011;63163;55.630;37.594;2023-12-22T03:55:39;7.500000;;;6.000000;;
74644;SDS011;63163;55.630;37.594;2023-12-22T03:56:40;9.400000;;;8.600000;;
74644;SDS011;63163;55.630;37.594;2023-12-22T03:57:40;9.100000;;;6.000000;;
74644;SDS011;63163;55.630;37.594;2023-12-22T03:58:41;7.800000;;;5.400000;;
74644;SDS011;63163;55.630;37.594;2023-12-22T03:59:42;7.300000;;;6.300000;;
74644;SDS011;63163;55.630;37.594;2023-12-22T04:00:43;6.400000;;;4.800000;;
74644;SDS011;63163;55.630;37.594;2023-12-22T04:01:44;6.900000;;;5.000000;;
74644;SDS011;63163;55.630;37.594;2023-12-22T04:02:44;8.000000;;;6.300000;;
74644;SDS011;63163;55.630;37.594;2023-12-22T04:03:45;6.200000;;;5.000000;;
74644;SDS011;63163;55.630;37.594;2023-12-22T04:04:46;7.500000;;;5.400000;;
74644;SDS011;63163;55.630;37.594;2023-12-22T04:05:47;7.400000;;;5.900000;;
74644;SDS011;63163;55.630;37.594;2023-12-22T04:06:47;7.600000;;;5.600000;;
74644;SDS011;63163;55.630;37.594;2023-12-22T04:07:48;6.900000;;;5.800000;;
74644;SDS011;63163;55.630;37.594;2023-12-22T04:08:48;7.500000;;;5.800000;;
74644;SDS011;63163;55.630;37.594;2023-12-22T04:09:49;7.700000;;;5.300000;;
74644;SDS011;63163;55.630;37.594;2023-12-22T04:10:49;7.200000;;;5.200000;;
74644;SDS011;63163;55.630;37.594;2023-12-22T04:11:50;6.800000;;;5.800000;;
74644;SDS011;63163;55.630;37.594;2023-12-22T04:12:51;9.100000;;;6.300000;;
74644;SDS011;63163;55.630;37.594;2023-12-22T04:13:51;6.700000;;;4.900000;;
74644;SDS011;63163;55.630;37.594;2023-12-22T04:14:52;7.100000;;;5.600000;;
74644;SDS011;63163;55.630;37.594;2023-12-22T04:15:54;9.100000;;;5.600000;;
74644;SDS011;63163;55.630;37.594;2023-12-22T04:16:54;9.000000;;;6.400000;;
74644;SDS011;63163;55.630;37.594;2023-12-22T04:17:55;7.500000;;;6.500000;;
74644;SDS011;63163;55.630;37.594;2023-12-22T04:18:55;7.200000;;;6.300000;;
74644;SDS011;63163;55.630;37.594;2023-12-22T04:19:56;7.800000;;;5.900000;;
74644;SDS011;63163;55.630;37.594;2023-12-22T04:20:57;9.400000;;;6.900000;;
74644;SDS011;63163;55.630;37.594;2023-12-22T04:21:57;8.700000;;;6.600000;;
74644;SDS011;63163;55.630;37.594;2023-12-22T04:22:58;7.500000;;;5.900000;;
74644;SDS011;63163;55.630;37.594;2023-12-22T04:23:58;7.900000;;;6.100000;;
74644;SDS011;63163;55.630;37.594;2023-12-22T04:24:59;8.600000;;;6.800000;;
74644;SDS011;63163;55.630;37.594;2023-12-22T04:26:00;6.700000;;;5.800000;;
74644;SDS011;63163;55.630;37.594;2023-12-22T04:27:02;6.800000;;;5.500000;;
74644;SDS011;63163;55.630;37.594;2023-12-22T04:28:02;7.500000;;;6.000000;;
74644;SDS011;63163;55.630;37.594;2023-12-22T04:29:04;8.000000;;;6.100000;;
74644;SDS011;63163;55.630;37.594;2023-12-22T04:30:05;7.200000;;;5.900000;;
74644;SDS011;63163;55.630;37.594;2023-12-22T04:31:06;7.600000;;;6.000000;;
74644;SDS011;63163;55.630;37.594;2023-12-22T04:32:06;7.900000;;;6.700000;;
74644;SDS011;63163;55.630;37.594;2023-12-22T04:33:07;7.900000;;;5.500000;;
74644;SDS011;63163;55.630;37.594;2023-12-22T04:34:08;7.700000;;;6.500000;;
74644;SDS011;63163;55.630;37.594;2023-12-22T04:35:08;8.500000;;;6.000000;;
74644;SDS011;63163;55.630;37.594;2023-12-22T04:36:09;7.800000;;;5.900000;;
74644;SDS011;63163;55.630;37.594;2023-12-22T04:37:10;9.100000;;;7.000000;;
74644;SDS011;63163;55.630;37.594;2023-12-22T04:38:10;8.000000;;;6.000000;;
74644;SDS011;63163;55.630;37.594;2023-12-22T04:39:11;5.100000;;;4.300000;;
74644;SDS011;63163;55.630;37.594;2023-12-22T04:40:12;7.500000;;;5.800000;;
74644;SDS011;63163;55.630;37.594;2023-12-22T04:41:13;7.700000;;;5.900000;;
74644;SDS011;63163;55.630;37.594;2023-12-22T04:42:13;6.800000;;;4.800000;;
74644;SDS011;63163;55.630;37.594;2023-12-22T04:43:14;7.300000;;;5.400000;;
74644;SDS011;63163;55.630;37.594;2023-12-22T04:44:14;8.400000;;;6.300000;;
74644;SDS011;63163;55.630;37.594;2023-12-22T04:45:15;7.700000;;;6.500000;;
74644;SDS011;63163;55.630;37.594;2023-12-22T04:46:17;8.100000;;;6.500000;;
74644;SDS011;63163;55.630;37.594;2023-12-22T04:47:18;9.700000;;;7.200000;;
74644;SDS011;63163;55.630;37.594;2023-12-22T04:48:18;8.300000;;;7.400000;;
74644;SDS011;63163;55.630;37.594;2023-12-22T04:49:19;18.700001;;;8.100000;;
74644;SDS011;63163;55.630;37.594;2023-12-22T04:50:20;9.600000;;;7.400000;;
74644;SDS011;63163;55.630;37.594;2023-12-22T04:51:20;8.800000;;;7.200000;;
74644;SDS011;63163;55.630;37.594;2023-12-22T04:52:21;9.000000;;;7.100000;;
74644;SDS011;63163;55.630;37.594;2023-12-22T04:53:22;10.400000;;;7.900000;;
74644;SDS011;63163;55.630;37.594;2023-12-22T04:54:22;9.300000;;;7.200000;;
74644;SDS011;63163;55.630;37.594;2023-12-22T04:55:23;9.900000;;;7.700000;;
74644;SDS011;63163;55.630;37.594;2023-12-22T04:56:23;9.900000;;;7.300000;;
74644;SDS011;63163;55.630;37.594;2023-12-22T04:57:24;8.900000;;;7.400000;;
74644;SDS011;63163;55.630;37.594;2023-12-22T04:58:24;10.900000;;;7.000000;;
74644;SDS011;63163;55.630;37.594;2023-12-22T04:59:25;12.100000;;;8.600000;;
74644;SDS011;63163;55.630;37.594;2023-12-22T05:00:26;12.300000;;;7.900000;;
74644;SDS011;63163;55.630;37.594;2023-12-22T05:01:26;9.100000;;;8.100000;;
74644;SDS011;63163;55.630;37.594;2023-12-22T05:02:27;10.700000;;;7.700000;;
74644;SDS011;63163;55.630;37.594;2023-12-22T05:03:29;9.700000;;;7.600000;;
74644;SDS011;63163;55.630;37.594;2023-12-22T05:04:29;9.100000;;;6.800000;;
74644;SDS011;63163;55.630;37.594;2023-12-22T05:05:30;12.100000;;;8.100000;;
74644;SDS011;63163;55.630;37.594;2023-12-22T05:06:31;10.700000;;;8.200000;;
74644;SDS011;63163;55.630;37.594;2023-12-22T05:07:31;12.100000;;;9.000000;;
74644;SDS011;63163;55.630;37.594;2023-12-22T05:08:32;11.700000;;;7.400000;;
74644;SDS011;63163;55.630;37.594;2023-12-22T05:09:33;12.700000;;;9.100000;;
74644;SDS011;63163;55.630;37.594;2023-12-22T05:10:33;14.900000;;;9.800000;;
74644;SDS011;63163;55.630;37.594;2023-12-22T05:11:34;11.900000;;;8.700000;;
74644;SDS011;63163;55.630;37.594;2023-12-22T05:12:35;11.900000;;;8.900000;;
74644;SDS011;63163;55.630;37.594;2023-12-22T05:13:35;13.100000;;;9.100000;;
74644;SDS011;63163;55.630;37.594;2023-12-22T05:14:36;11.000000;;;8.500000;;
74644;SDS011;63163;55.630;37.594;2023-12-22T05:15:37;10.600000;;;7.800000;;
74644;SDS011;63163;55.630;37.594;2023-12-22T05:16:38;10.100000;;;7.900000;;
74644;SDS011;63163;55.630;37.594;2023-12-22T05:17:38;10.500000;;;8.000000;;
74644;SDS011;63163;55.630;37.594;2023-12-22T05:18:40;12.200000;;;8.400000;;
74644;SDS011;63163;55.630;37.594;2023-12-22T05:19:41;13.500000;;;9.400000;;
74644;SDS011;63163;55.630;37.594;2023-12-22T05:20:41;11.000000;;;8.800000;;
74644;SDS011;63163;55.630;37.594;2023-12-22T05:21:44;12.500000;;;9.300000;;
74644;SDS011;63163;55.630;37.594;2023-12-22T05:22:44;13.500000;;;8.600000;;
74644;SDS011;63163;55.630;37.594;2023-12-22T05:23:45;14.900000;;;10.000000;;